KSJT/SJT METAR and TAF weather

Enter ICAO airport designator
Station Type Date Time Source
KSJT METAR 2018/12/19 02:51 UTC NOAA

KSJT 190251Z 17005KT 10SM SCT080 SCT110 10/08 A2994 RMK AO2 SLP138 60000 T01000078 51006


Station Type Date Time Source
KSJT Decoded METAR 2018/12/19 02:51 UTC NOAA

MATHIS FIELD, TX, United States (KSJT) 31-21N 100-30W 581M
Dec 18, 2018 - 09:51 PM EST / 2018.12.19 0251 UTC
Wind: from the S (170 degrees) at 6 MPH (5 KT):0
Visibility: 10 mile(s):0
Sky conditions: partly cloudy
Temperature: 50.0 F (10.0 C)
Dew Point: 46.0 F (7.8 C)
Relative Humidity: 86%
Pressure (altimeter): 29.94 in. Hg (1013 hPa)
Pressure tendency: 0.02 inches (0.6 hPa) higher than three hours ago
ob: KSJT 190251Z 17005KT 10SM SCT080 SCT110 10/08 A2994 RMK AO2 SLP138 60000 T01000078 51006
cycle: 3

Station Type Date Time Source
KSJT TAF 2018/12/18 18:30 UTC NOAA

TAF KSJT 181727Z 1818/1918 19010KT P6SM FEW020 BKN100
FM182200 19007KT P6SM OVC050
FM190200 19005KT P6SM VCSH OVC050
FM191000 23004KT P6SM OVC010
FM191600 24006KT P6SM SCT100


Example: see airport list